Terminal Aerodrome Forecast
Issued by NWS

Home | Current Version | Previous Version | Text Only | Print | Product List | Glossary On
Versions: 1 2 3 4 5 6 7 8 9 10 11 12 13 14
000
FTUS45 KRIW 071123
TAFWRL
TAF
KWRL 071123Z 0712/0812 VRB05KT P6SM VCFG FEW100
      TEMPO 0712/0714 5SM BR
     FM071500 16006KT P6SM SCT070 SCT120
     FM072200 VRB06KT P6SM VCTS SCT070CB BKN150
     FM080300 VRB05KT P6SM VCSH BKN070
     FM080600 VRB05KT P6SM SCT070 BKN120=

USA.gov is the U.S. government's official web portal to all federal, state and local government web resources and services.